Time;durP1;ratioP1;P1;durP2;ratioP2;P2;SDS_P1;SDS_P2;PMS_P1;PMS_P2;Temp;Humidity;BMP_temperature;BMP_pressure;BME280_temperature;BME280_humidity;BME280_pressure;Samples;Min_cycle;Max_cycle;Signal;HPM_P1;HPM_P2
2021/12/05 00:24:22;;;;;;;7.05;2.35;;;;;;;;;;5024534;28;20032;-56
2021/12/05 00:26:58;;;;;;;6.25;2.20;;;;;;;;;;5019825;28;20034;-58
2021/12/05 00:32:35;;;;;;;3.88;2.40;;;;;;;;;;5030686;28;20124;-58
2021/12/05 00:40:48;;;;;;;2.90;1.75;;;;;;;;;;5019686;28;20025;-56
2021/12/05 00:48:52;;;;;;;3.25;1.55;;;;;;;;;;5021186;28;20036;-56
2021/12/05 01:17:24;;;;;;;2.95;1.27;;;;;;;;;;5023637;28;20033;-54
2021/12/05 01:19:50;;;;;;;1.88;1.23;;;;;;;;;;5023312;28;20017;-54
2021/12/05 01:22:19;;;;;;;4.30;1.40;;;;;;;;;;5022366;28;20445;-53
2021/12/05 01:27:28;;;;;;;5.18;1.33;;;;;;;;;;5026525;28;20035;-54
2021/12/05 01:30:05;;;;;;;3.35;1.10;;;;;;;;;;5019485;28;20337;-53
2021/12/05 01:38:12;;;;;;;4.60;1.52;;;;;;;;;;5018409;28;20384;-53
2021/12/05 01:51:19;;;;;;;6.72;2.20;;;;;;;;;;5021384;28;20032;-52
2021/12/05 02:10:51;;;;;;;6.80;1.33;;;;;;;;;;5019581;28;20037;-54
2021/12/05 02:16:25;;;;;;;4.00;1.50;;;;;;;;;;5022662;28;20040;-52
2021/12/05 02:42:21;;;;;;;8.93;1.80;;;;;;;;;;5019517;28;20039;-55
2021/12/05 02:44:47;;;;;;;3.65;1.40;;;;;;;;;;5026580;28;20017;-54
2021/12/05 02:47:18;;;;;;;6.05;1.85;;;;;;;;;;5021667;28;20036;-54
2021/12/05 02:49:48;;;;;;;5.22;1.70;;;;;;;;;;5022540;28;20057;-54
2021/12/05 02:52:21;;;;;;;3.53;1.42;;;;;;;;;;5021191;28;20037;-52
2021/12/05 02:54:52;;;;;;;6.07;1.50;;;;;;;;;;5020699;28;20030;-53
2021/12/05 02:57:26;;;;;;;7.68;1.42;;;;;;;;;;5026257;28;20495;-52
2021/12/05 02:59:56;;;;;;;6.72;1.40;;;;;;;;;;5025282;28;20076;-52
2021/12/05 03:02:27;;;;;;;;;;;;;;;;;;5025089;28;20021;-53
2021/12/05 03:04:55;;;;;;;6.93;1.38;;;;;;;;;;5025686;28;19944;-55
2021/12/05 03:07:26;;;;;;;6.93;1.50;;;;;;;;;;5024057;28;20041;-52
2021/12/05 03:09:52;;;;;;;4.40;1.55;;;;;;;;;;5024056;28;20131;-53
2021/12/05 03:12:19;;;;;;;7.18;1.63;;;;;;;;;;5027658;28;20068;-52
2021/12/05 03:14:46;;;;;;;7.80;1.60;;;;;;;;;;5022750;28;20049;-52
2021/12/05 03:17:12;;;;;;;5.40;1.38;;;;;;;;;;5025467;28;20448;-53
2021/12/05 03:19:38;;;;;;;2.13;1.00;;;;;;;;;;5023845;28;20121;-52
2021/12/05 03:22:04;;;;;;;4.40;1.00;;;;;;;;;;5023547;28;20030;-55
2021/12/05 03:24:29;;;;;;;4.65;0.95;;;;;;;;;;5026436;28;20048;-53
2021/12/05 03:26:56;;;;;;;2.50;1.13;;;;;;;;;;5026001;28;20443;-53
2021/12/05 03:29:23;;;;;;;4.53;1.00;;;;;;;;;;5026637;28;20025;-53
2021/12/05 03:31:49;;;;;;;2.92;1.10;;;;;;;;;;5021183;28;20049;-53
2021/12/05 03:34:17;;;;;;;2.97;1.02;;;;;;;;;;5025500;28;20028;-53
2021/12/05 03:36:46;;;;;;;3.95;1.05;;;;;;;;;;5019973;28;20022;-54
2021/12/05 03:39:12;;;;;;;2.38;1.02;;;;;;;;;;5021524;28;20198;-54
2021/12/05 03:41:39;;;;;;;2.15;0.90;;;;;;;;;;5025721;28;20507;-54
2021/12/05 03:44:07;;;;;;;4.25;1.50;;;;;;;;;;5023814;28;20028;-54
2021/12/05 03:46:34;;;;;;;5.57;1.25;;;;;;;;;;5021241;28;20033;-51
2021/12/05 03:49:08;;;;;;;1.73;1.10;;;;;;;;;;5023418;28;20029;-52
2021/12/05 03:51:37;;;;;;;2.92;1.40;;;;;;;;;;5027607;28;20084;-53
2021/12/05 03:54:05;;;;;;;7.50;1.30;;;;;;;;;;5022801;28;20091;-54
2021/12/05 03:56:32;;;;;;;7.13;0.90;;;;;;;;;;5026915;28;20034;-53
2021/12/05 03:58:58;;;;;;;3.42;1.20;;;;;;;;;;5026121;28;20095;-54
2021/12/05 04:01:25;;;;;;;2.45;1.15;;;;;;;;;;5023333;28;20416;-53
2021/12/05 04:03:52;;;;;;;5.38;0.80;;;;;;;;;;5022692;28;20476;-53
2021/12/05 04:06:20;;;;;;;5.00;0.85;;;;;;;;;;5029682;28;20033;-51
2021/12/05 04:08:46;;;;;;;3.60;0.70;;;;;;;;;;5024671;28;20025;-53
2021/12/05 04:11:27;;;;;;;4.22;0.90;;;;;;;;;;5023629;28;20514;-51
2021/12/05 04:13:52;;;;;;;6.38;0.90;;;;;;;;;;5022539;28;20030;-54
2021/12/05 04:16:18;;;;;;;4.20;1.15;;;;;;;;;;5024779;28;20022;-54
2021/12/05 04:18:46;;;;;;;5.55;1.33;;;;;;;;;;5020958;28;20025;-54
2021/12/05 04:21:12;;;;;;;2.03;0.80;;;;;;;;;;5019625;28;20013;-53
2021/12/05 04:23:38;;;;;;;5.40;0.88;;;;;;;;;;5021577;28;20041;-50
2021/12/05 04:26:04;;;;;;;7.70;0.93;;;;;;;;;;5022037;28;20029;-55
2021/12/05 04:28:30;;;;;;;2.00;0.95;;;;;;;;;;5024580;28;20152;-51
2021/12/05 04:30:56;;;;;;;3.33;0.80;;;;;;;;;;5020821;28;20041;-51
2021/12/05 04:33:22;;;;;;;3.08;0.85;;;;;;;;;;5024087;28;20033;-51
2021/12/05 04:35:48;;;;;;;2.05;0.70;;;;;;;;;;5020574;28;20408;-51
2021/12/05 04:38:14;;;;;;;4.03;0.70;;;;;;;;;;5022820;28;20135;-54
2021/12/05 04:40:40;;;;;;;3.55;1.10;;;;;;;;;;5026420;28;20021;-52
2021/12/05 04:43:05;;;;;;;5.03;0.88;;;;;;;;;;5021802;28;20025;-53
2021/12/05 04:45:33;;;;;;;4.53;1.20;;;;;;;;;;5025139;28;20175;-53
2021/12/05 04:48:00;;;;;;;2.30;0.73;;;;;;;;;;5021678;28;20040;-53
2021/12/05 04:50:28;;;;;;;3.40;1.20;;;;;;;;;;5022380;28;20091;-53
2021/12/05 04:52:54;;;;;;;2.22;1.27;;;;;;;;;;5022316;28;20034;-52
2021/12/05 04:55:21;;;;;;;5.05;0.88;;;;;;;;;;5029167;28;20025;-55
2021/12/05 04:57:48;;;;;;;5.32;1.27;;;;;;;;;;5027392;28;20036;-53
2021/12/05 05:00:27;;;;;;;2.10;1.02;;;;;;;;;;5021323;28;20508;-57
2021/12/05 05:02:54;;;;;;;4.13;1.20;;;;;;;;;;5020845;28;20044;-54
2021/12/05 05:05:21;;;;;;;4.57;1.23;;;;;;;;;;5024694;28;20029;-53
2021/12/05 05:07:47;;;;;;;2.55;1.13;;;;;;;;;;5020414;28;20204;-53
2021/12/05 05:10:19;;;;;;;4.13;1.17;;;;;;;;;;5017639;28;20174;-55
2021/12/05 05:12:45;;;;;;;4.72;1.30;;;;;;;;;;5020301;28;20037;-53
2021/12/05 05:15:13;;;;;;;1.85;1.02;;;;;;;;;;5018975;28;20026;-54
2021/12/05 05:17:39;;;;;;;3.70;1.27;;;;;;;;;;5024196;28;20393;-52
2021/12/05 05:20:19;;;;;;;2.97;1.10;;;;;;;;;;5020751;28;20476;-54
2021/12/05 05:26:21;;;;;;;2.03;1.00;;;;;;;;;;5024407;28;19913;-53
2021/12/05 05:47:05;;;;;;;3.50;0.95;;;;;;;;;;5021934;28;20032;-52
2021/12/05 05:49:48;;;;;;;1.50;0.80;;;;;;;;;;5025521;28;20303;-52
2021/12/05 05:52:14;;;;;;;3.60;1.05;;;;;;;;;;5015138;28;20068;-52
2021/12/05 05:54:43;;;;;;;2.45;1.10;;;;;;;;;;5023256;28;20041;-53
2021/12/05 05:57:31;;;;;;;2.80;1.00;;;;;;;;;;5021737;28;20032;-52
2021/12/05 06:05:09;;;;;;;4.22;0.90;;;;;;;;;;5025591;28;20060;-54
2021/12/05 06:07:41;;;;;;;5.45;0.85;;;;;;;;;;5024533;28;20356;-52
2021/12/05 06:10:09;;;;;;;1.88;0.82;;;;;;;;;;5017522;28;20060;-56
2021/12/05 06:12:35;;;;;;;6.13;1.08;;;;;;;;;;5018889;28;20061;-56
2021/12/05 06:15:01;;;;;;;3.00;1.63;;;;;;;;;;5018663;28;20057;-54
2021/12/05 06:17:26;;;;;;;3.33;1.08;;;;;;;;;;5027858;28;20527;-56
2021/12/05 06:19:53;;;;;;;3.33;1.08;;;;;;;;;;5019683;28;20036;-56
2021/12/05 06:22:19;;;;;;;4.45;1.30;;;;;;;;;;5022886;28;20467;-55
2021/12/05 06:24:44;;;;;;;3.38;1.00;;;;;;;;;;5020108;28;20048;-56
2021/12/05 06:27:10;;;;;;;4.75;1.30;;;;;;;;;;5022093;28;20399;-56
2021/12/05 06:29:41;;;;;;;1.98;0.98;;;;;;;;;;5022352;28;20049;-58
2021/12/05 06:38:00;;;;;;;3.20;1.35;;;;;;;;;;5024603;28;20120;-56
2021/12/05 06:47:56;;;;;;;2.92;1.08;;;;;;;;;;5024754;28;20121;-54
2021/12/05 06:50:21;;;;;;;4.00;1.30;;;;;;;;;;5024702;28;20116;-55
2021/12/05 06:52:47;;;;;;;4.88;2.05;;;;;;;;;;5027326;28;20511;-54
2021/12/05 06:55:15;;;;;;;4.25;1.42;;;;;;;;;;5023419;28;20422;-54
2021/12/05 06:57:42;;;;;;;5.30;2.45;;;;;;;;;;5026545;28;20573;-53
2021/12/05 07:00:11;;;;;;;2.75;1.60;;;;;;;;;;5025609;28;20052;-55
2021/12/05 07:02:37;;;;;;;5.13;1.77;;;;;;;;;;5020749;28;20380;-54
2021/12/05 07:07:32;;;;;;;2.58;1.38;;;;;;;;;;5024670;28;20040;-53
2021/12/05 07:09:58;;;;;;;;;;;;;;;;;;5023077;28;20372;-56
2021/12/05 07:15:34;;;;;;;5.55;1.88;;;;;;;;;;5026449;28;20021;-56
2021/12/05 07:23:28;;;;;;;4.45;1.70;;;;;;;;;;5029658;28;20025;-56
2021/12/05 07:26:10;;;;;;;8.85;1.92;;;;;;;;;;5027208;28;20033;-55
2021/12/05 07:40:33;;;;;;;6.97;2.10;;;;;;;;;;5024996;28;20507;-56
2021/12/05 07:42:28;;;;;;;3.80;1.50;;;;;;;;;;5026600;28;20041;-54
2021/12/05 07:44:56;;;;;;;5.63;1.75;;;;;;;;;;5024670;28;20035;-55
2021/12/05 07:47:24;;;;;;;5.15;1.60;;;;;;;;;;5025190;28;20029;-54
2021/12/05 07:49:52;;;;;;;3.63;1.67;;;;;;;;;;5024361;28;20124;-55
2021/12/05 07:52:22;;;;;;;8.35;3.38;;;;;;;;;;5025034;28;20028;-54
2021/12/05 07:54:50;;;;;;;5.97;2.28;;;;;;;;;;5024518;28;20554;-55
2021/12/05 07:57:20;;;;;;;7.45;2.50;;;;;;;;;;5020315;28;20048;-54
2021/12/05 08:00:15;;;;;;;3.75;1.90;;;;;;;;;;5020063;28;20480;-54
2021/12/05 08:16:17;;;;;;;24.05;10.70;;;;;;;;;;5023363;28;20048;-54
2021/12/05 08:18:43;;;;;;;29.80;11.30;;;;;;;;;;5020379;28;20526;-53
2021/12/05 08:21:10;;;;;;;17.77;8.23;;;;;;;;;;5027550;28;20029;-57
2021/12/05 08:23:36;;;;;;;19.15;10.32;;;;;;;;;;5024730;28;20025;-55
2021/12/05 08:31:16;;;;;;;8.05;4.38;;;;;;;;;;5029183;28;20087;-55
2021/12/05 09:22:44;;;;;;;11.65;5.65;;;;;;;;;;5020396;28;20532;-56
2021/12/05 09:24:50;;;;;;;10.25;6.03;;;;;;;;;;5024886;28;20026;-55
2021/12/05 09:38:59;;;;;;;4.35;1.63;;;;;;;;;;5024359;28;20045;-55
2021/12/05 10:03:35;;;;;;;3.22;1.90;;;;;;;;;;5024152;28;20040;-58
2021/12/05 10:12:00;;;;;;;3.53;2.00;;;;;;;;;;5019986;28;20037;-56
2021/12/05 10:14:45;;;;;;;4.88;2.40;;;;;;;;;;5019643;28;20034;-55
2021/12/05 10:36:18;;;;;;;2.42;1.55;;;;;;;;;;5021471;28;20480;-56
2021/12/05 10:38:54;;;;;;;2.08;1.30;;;;;;;;;;5019707;28;20405;-56
2021/12/05 10:44:01;;;;;;;5.22;1.55;;;;;;;;;;5022764;28;20550;-55
2021/12/05 10:46:29;;;;;;;4.85;1.90;;;;;;;;;;5021064;28;20497;-55
2021/12/05 10:49:06;;;;;;;4.88;1.52;;;;;;;;;;5023342;28;20511;-55
2021/12/05 10:51:45;;;;;;;3.78;1.38;;;;;;;;;;5024667;28;20022;-54
2021/12/05 10:54:14;;;;;;;1.60;1.25;;;;;;;;;;5023380;28;20037;-55
2021/12/05 10:56:43;;;;;;;3.55;1.83;;;;;;;;;;5021790;28;20147;-55
2021/12/05 10:59:24;;;;;;;2.83;1.70;;;;;;;;;;5023882;28;20034;-55
2021/12/05 11:01:51;;;;;;;4.28;2.10;;;;;;;;;;5019167;28;20027;-56
2021/12/05 11:04:22;;;;;;;3.78;1.60;;;;;;;;;;5022378;28;20508;-56
2021/12/05 11:06:59;;;;;;;2.65;1.38;;;;;;;;;;5023280;28;20079;-55
2021/12/05 11:09:34;;;;;;;7.90;3.10;;;;;;;;;;5021595;28;20403;-55
2021/12/05 11:12:03;;;;;;;6.72;2.97;;;;;;;;;;5019388;28;20515;-56
2021/12/05 11:14:34;;;;;;;6.37;2.57;;;;;;;;;;5021248;28;20156;-55
2021/12/05 11:17:08;;;;;;;6.50;2.13;;;;;;;;;;5022174;28;20090;-54
2021/12/05 11:19:42;;;;;;;2.47;1.30;;;;;;;;;;5027944;28;20035;-56
2021/12/05 11:22:10;;;;;;;3.33;2.00;;;;;;;;;;5026340;28;20254;-55
2021/12/05 11:24:40;;;;;;;6.47;2.63;;;;;;;;;;5020767;28;20395;-55
2021/12/05 11:27:30;;;;;;;6.70;2.88;;;;;;;;;;5024186;28;20033;-57
2021/12/05 11:30:10;;;;;;;5.60;1.50;;;;;;;;;;5026636;28;20087;-55
2021/12/05 11:32:56;;;;;;;2.78;1.48;;;;;;;;;;5025753;28;20035;-55
2021/12/05 11:35:38;;;;;;;1.95;1.10;;;;;;;;;;5025840;28;20034;-55
2021/12/05 11:38:29;;;;;;;2.80;1.17;;;;;;;;;;5024111;28;20029;-56
2021/12/05 11:41:03;;;;;;;2.00;1.38;;;;;;;;;;5028757;28;20044;-56
2021/12/05 11:43:37;;;;;;;3.80;1.85;;;;;;;;;;5027703;28;20568;-56
2021/12/05 11:46:06;;;;;;;3.70;1.50;;;;;;;;;;5023799;28;20028;-55
2021/12/05 11:48:39;;;;;;;2.50;1.40;;;;;;;;;;5028062;28;20052;-55
2021/12/05 11:51:27;;;;;;;4.10;1.60;;;;;;;;;;5026165;28;20033;-58
2021/12/05 11:54:14;;;;;;;5.28;2.40;;;;;;;;;;5029405;28;20025;-56
2021/12/05 11:56:48;;;;;;;9.73;4.88;;;;;;;;;;5021676;28;20025;-55
2021/12/05 11:59:18;;;;;;;6.50;2.95;;;;;;;;;;5024090;28;20034;-56
2021/12/05 12:02:10;;;;;;;4.57;1.73;;;;;;;;;;5024789;28;20032;-56
2021/12/05 12:04:45;;;;;;;3.83;1.15;;;;;;;;;;5019701;28;20059;-55
2021/12/05 12:07:16;;;;;;;5.18;2.35;;;;;;;;;;5024954;28;20021;-55
2021/12/05 12:09:43;;;;;;;2.38;1.20;;;;;;;;;;5023826;28;20436;-56
2021/12/05 12:12:10;;;;;;;4.18;1.50;;;;;;;;;;5031623;28;20084;-55
2021/12/05 12:14:35;;;;;;;4.00;2.20;;;;;;;;;;5024660;28;20049;-55
2021/12/05 12:17:04;;;;;;;2.75;1.90;;;;;;;;;;5025044;28;20061;-55
2021/12/05 12:19:30;;;;;;;4.85;2.47;;;;;;;;;;5031345;28;20080;-55
2021/12/05 12:21:59;;;;;;;7.57;3.33;;;;;;;;;;5028724;28;20443;-54
2021/12/05 12:24:26;;;;;;;7.85;3.05;;;;;;;;;;5025060;28;20203;-55
2021/12/05 12:26:53;;;;;;;6.20;2.20;;;;;;;;;;5026484;28;20045;-54
2021/12/05 12:29:19;;;;;;;8.10;2.35;;;;;;;;;;5018833;28;20105;-56
2021/12/05 12:31:47;;;;;;;3.25;2.05;;;;;;;;;;5023950;28;20029;-55
2021/12/05 12:34:18;;;;;;;5.90;1.98;;;;;;;;;;5019315;28;20400;-55
2021/12/05 12:36:47;;;;;;;1.65;0.93;;;;;;;;;;5020741;28;20025;-56
2021/12/05 12:39:15;;;;;;;;;;;;;;;;;;5019103;28;20033;-56
2021/12/05 12:41:42;;;;;;;5.95;2.80;;;;;;;;;;5024858;28;20304;-56
2021/12/05 12:44:08;;;;;;;6.70;3.17;;;;;;;;;;5026226;28;20025;-57
2021/12/05 12:46:39;;;;;;;6.60;3.45;;;;;;;;;;5020647;28;20041;-56
2021/12/05 12:49:13;;;;;;;9.35;4.65;;;;;;;;;;5021361;28;20399;-58
2021/12/05 12:51:40;;;;;;;5.55;2.90;;;;;;;;;;5023115;28;20499;-56
2021/12/05 12:54:32;;;;;;;3.25;2.10;;;;;;;;;;5022427;28;20029;-58
2021/12/05 12:57:09;;;;;;;10.55;3.38;;;;;;;;;;5023492;28;20036;-57
2021/12/05 12:59:39;;;;;;;4.03;2.45;;;;;;;;;;5021959;28;20405;-56
2021/12/05 13:10:20;;;;;;;8.23;3.45;;;;;;;;;;5023758;28;20069;-57
2021/12/05 13:12:52;;;;;;;8.82;2.58;;;;;;;;;;5027895;28;20476;-57
2021/12/05 13:15:37;;;;;;;15.27;4.72;;;;;;;;;;5029911;28;20028;-57
2021/12/05 13:18:08;;;;;;;27.23;8.73;;;;;;;;;;5019330;28;20547;-57
2021/12/05 13:20:43;;;;;;;14.27;5.38;;;;;;;;;;5023019;28;20507;-57
2021/12/05 13:23:15;;;;;;;8.13;4.00;;;;;;;;;;5022778;28;20416;-57
2021/12/05 13:26:15;;;;;;;2.92;1.45;;;;;;;;;;5025226;28;20166;-56
2021/12/05 13:29:14;;;;;;;11.25;5.20;;;;;;;;;;5018923;28;20030;-56
2021/12/05 13:31:46;;;;;;;12.20;3.67;;;;;;;;;;5022150;28;20488;-57
2021/12/05 13:34:33;;;;;;;11.85;4.85;;;;;;;;;;5022734;28;20041;-56
2021/12/05 13:37:12;;;;;;;8.38;3.20;;;;;;;;;;5019175;28;20029;-56
2021/12/05 13:39:55;;;;;;;4.87;2.70;;;;;;;;;;5024505;28;20033;-56
2021/12/05 13:42:25;;;;;;;5.53;1.98;;;;;;;;;;5022499;28;20033;-56
2021/12/05 13:44:57;;;;;;;7.72;2.60;;;;;;;;;;5022326;28;20541;-56
2021/12/05 13:47:29;;;;;;;5.43;1.98;;;;;;;;;;5022461;28;20041;-55
2021/12/05 13:49:56;;;;;;;5.20;2.03;;;;;;;;;;5021526;28;20464;-55
2021/12/05 13:52:32;;;;;;;5.57;2.28;;;;;;;;;;5021276;28;20064;-56
2021/12/05 13:55:33;;;;;;;6.25;2.22;;;;;;;;;;5020043;28;20025;-56
2021/12/05 13:58:16;;;;;;;11.10;3.72;;;;;;;;;;5020981;28;20082;-56
2021/12/05 14:00:58;;;;;;;41.90;8.48;;;;;;;;;;5023678;28;20024;-55
2021/12/05 14:03:42;;;;;;;103.22;18.75;;;;;;;;;;5020834;28;20033;-56
2021/12/05 14:06:28;;;;;;;34.42;8.32;;;;;;;;;;5022792;28;20025;-56
2021/12/05 14:08:59;;;;;;;8.57;3.22;;;;;;;;;;5020915;28;20117;-55
2021/12/05 14:11:25;;;;;;;8.48;4.47;;;;;;;;;;5023179;28;20018;-56
2021/12/05 14:13:51;;;;;;;6.10;2.90;;;;;;;;;;5021769;28;20061;-56
2021/12/05 14:16:18;;;;;;;8.82;2.95;;;;;;;;;;5023743;28;20502;-56
2021/12/05 14:18:44;;;;;;;7.90;3.22;;;;;;;;;;5022675;28;20039;-55
2021/12/05 14:21:17;;;;;;;9.55;2.60;;;;;;;;;;5020406;28;20105;-55
2021/12/05 14:23:51;;;;;;;8.85;2.58;;;;;;;;;;5018479;28;20433;-55
2021/12/05 14:26:19;;;;;;;7.00;1.98;;;;;;;;;;5022912;28;20033;-55
2021/12/05 14:28:55;;;;;;;230.18;32.25;;;;;;;;;;5022090;28;20029;-55
2021/12/05 14:31:43;;;;;;;132.73;21.05;;;;;;;;;;5024079;28;20029;-57
2021/12/05 14:34:10;;;;;;;72.47;13.18;;;;;;;;;;5020408;28;20124;-55
2021/12/05 14:36:41;;;;;;;33.78;8.52;;;;;;;;;;5019718;28;20021;-54
2021/12/05 14:39:41;;;;;;;125.03;20.23;;;;;;;;;;5022519;28;20033;-56
2021/12/05 14:42:22;;;;;;;147.63;28.80;;;;;;;;;;5022313;28;20033;-56
2021/12/05 14:44:51;;;;;;;49.17;12.07;;;;;;;;;;5022444;28;20036;-56
2021/12/05 14:47:19;;;;;;;53.55;11.73;;;;;;;;;;5020447;28;20026;-55
2021/12/05 14:49:52;;;;;;;111.25;18.00;;;;;;;;;;5024913;28;20029;-55
2021/12/05 14:52:22;;;;;;;53.33;11.27;;;;;;;;;;5017197;28;20034;-54
2021/12/05 14:54:48;;;;;;;215.88;33.50;;;;;;;;;;5024440;28;20259;-55
2021/12/05 14:57:26;;;;;;;630.55;99.82;;;;;;;;;;5025510;28;20144;-55
2021/12/05 14:59:59;;;;;;;447.10;65.57;;;;;;;;;;5019186;28;20091;-55
2021/12/05 15:02:25;;;;;;;164.98;27.13;;;;;;;;;;5026420;28;20061;-55
2021/12/05 15:04:52;;;;;;;96.45;18.67;;;;;;;;;;5023286;28;20030;-55
2021/12/05 15:07:20;;;;;;;54.97;11.98;;;;;;;;;;5031715;28;20417;-55
2021/12/05 15:09:49;;;;;;;126.38;27.02;;;;;;;;;;5023594;28;20021;-54
2021/12/05 15:12:30;;;;;;;151.83;35.27;;;;;;;;;;5024480;28;20053;-55
2021/12/05 15:15:04;;;;;;;75.85;20.98;;;;;;;;;;5027865;28;20384;-55
2021/12/05 15:17:35;;;;;;;61.45;18.40;;;;;;;;;;5025685;28;20029;-55
2021/12/05 15:20:11;;;;;;;19.88;8.10;;;;;;;;;;5030585;28;20028;-55
2021/12/05 15:22:37;;;;;;;18.63;6.82;;;;;;;;;;5021982;28;20057;-55
2021/12/05 15:25:08;;;;;;;9.75;3.75;;;;;;;;;;5025367;28;20049;-54
2021/12/05 15:27:35;;;;;;;15.98;5.72;;;;;;;;;;5025599;28;20084;-54
2021/12/05 15:30:04;;;;;;;20.83;8.88;;;;;;;;;;5023126;28;20061;-55
2021/12/05 15:32:32;;;;;;;10.10;5.53;;;;;;;;;;5023867;28;23756;-55
2021/12/05 15:35:00;;;;;;;11.73;5.07;;;;;;;;;;5030403;28;20029;-55
2021/12/05 15:37:26;;;;;;;16.15;6.55;;;;;;;;;;5024434;28;20032;-57
2021/12/05 15:39:53;;;;;;;12.18;4.82;;;;;;;;;;5022860;28;20493;-55
2021/12/05 15:42:28;;;;;;;7.00;3.63;;;;;;;;;;5026900;28;20029;-56
2021/12/05 15:44:56;;;;;;;8.40;5.13;;;;;;;;;;5021162;28;20659;-56
2021/12/05 15:47:33;;;;;;;9.90;4.72;;;;;;;;;;5024190;28;20025;-56
2021/12/05 15:49:58;;;;;;;9.05;4.85;;;;;;;;;;5026211;28;20025;-56
2021/12/05 15:52:47;;;;;;;14.57;6.20;;;;;;;;;;5027745;28;20191;-57
2021/12/05 15:55:19;;;;;;;13.38;6.25;;;;;;;;;;5024466;28;20076;-56
2021/12/05 15:57:48;;;;;;;12.82;6.53;;;;;;;;;;5025845;28;20034;-55
2021/12/05 16:00:22;;;;;;;14.70;6.70;;;;;;;;;;5025624;28;20060;-56
2021/12/05 16:02:56;;;;;;;13.23;6.68;;;;;;;;;;5022373;28;20033;-56
2021/12/05 16:05:22;;;;;;;14.18;6.68;;;;;;;;;;5024551;28;20156;-56
2021/12/05 16:07:50;;;;;;;11.88;7.30;;;;;;;;;;5023012;28;20092;-56
2021/12/05 16:10:22;;;;;;;16.92;5.18;;;;;;;;;;5023903;28;20029;-54
2021/12/05 16:12:50;;;;;;;8.63;4.25;;;;;;;;;;5039557;28;20032;-55
2021/12/05 16:15:18;;;;;;;4.32;2.83;;;;;;;;;;5023789;28;20446;-54
2021/12/05 16:17:52;;;;;;;7.25;4.20;;;;;;;;;;5022612;28;20052;-55
2021/12/05 16:20:21;;;;;;;7.05;3.38;;;;;;;;;;5023295;28;20034;-55
2021/12/05 16:23:14;;;;;;;5.87;3.27;;;;;;;;;;5022529;28;20022;-58
2021/12/05 16:25:57;;;;;;;8.25;2.88;;;;;;;;;;5027498;28;20555;-57
2021/12/05 16:28:27;;;;;;;9.18;4.40;;;;;;;;;;5023612;28;20061;-57
2021/12/05 16:30:59;;;;;;;9.13;3.95;;;;;;;;;;5025032;28;20100;-56
2021/12/05 16:33:26;;;;;;;9.85;4.30;;;;;;;;;;5020036;28;20041;-57
2021/12/05 16:35:53;;;;;;;6.95;3.10;;;;;;;;;;5028838;28;20112;-55
2021/12/05 16:38:33;;;;;;;5.07;2.90;;;;;;;;;;5035890;28;20029;-55
2021/12/05 16:41:19;;;;;;;3.42;1.95;;;;;;;;;;5027040;28;20442;-55
2021/12/05 16:43:49;;;;;;;5.28;2.42;;;;;;;;;;5031115;28;20078;-55
2021/12/05 16:46:46;;;;;;;7.32;2.67;;;;;;;;;;5028183;28;20475;-55
2021/12/05 16:49:20;;;;;;;6.28;3.17;;;;;;;;;;5022590;28;20105;-55
2021/12/05 16:51:51;;;;;;;5.47;2.85;;;;;;;;;;5029630;28;20346;-55
2021/12/05 16:59:38;;;;;;;2.88;1.30;;;;;;;;;;5005886;28;20053;-54
2021/12/05 17:02:20;;;;;;;3.72;2.25;;;;;;;;;;5006914;28;20049;-55
2021/12/05 17:04:49;;;;;;;5.25;1.92;;;;;;;;;;5006238;28;20660;-53
2021/12/05 17:07:35;;;;;;;7.97;2.35;;;;;;;;;;5005806;28;20096;-55
2021/12/05 17:10:02;;;;;;;4.40;2.30;;;;;;;;;;5008860;28;20030;-55
2021/12/05 17:12:30;;;;;;;4.90;2.10;;;;;;;;;;5002779;28;20156;-54
2021/12/05 17:15:11;;;;;;;4.05;1.60;;;;;;;;;;5005501;28;20042;-55
2021/12/05 17:17:36;;;;;;;3.95;1.90;;;;;;;;;;5006951;28;20025;-55
2021/12/05 17:20:17;;;;;;;2.00;1.40;;;;;;;;;;5005340;28;20024;-56
2021/12/05 17:22:54;;;;;;;4.18;2.10;;;;;;;;;;5001548;28;20184;-56
2021/12/05 17:25:40;;;;;;;3.95;2.05;;;;;;;;;;5008638;28;20076;-55
2021/12/05 17:28:09;;;;;;;4.85;1.92;;;;;;;;;;4998272;28;20163;-55
2021/12/05 17:30:35;;;;;;;4.05;1.25;;;;;;;;;;5006582;28;20018;-54
2021/12/05 17:33:02;;;;;;;3.17;0.90;;;;;;;;;;5007187;28;20042;-55
2021/12/05 17:35:30;;;;;;;1.08;0.95;;;;;;;;;;5012449;28;20473;-54
2021/12/05 17:37:57;;;;;;;2.22;0.77;;;;;;;;;;5007779;28;20033;-54
2021/12/05 17:40:23;;;;;;;1.42;0.80;;;;;;;;;;5007942;28;20021;-54
2021/12/05 17:42:48;;;;;;;0.80;0.60;;;;;;;;;;5010221;28;20033;-54
2021/12/05 17:45:16;;;;;;;1.38;1.00;;;;;;;;;;5014945;28;20036;-54
2021/12/05 17:47:42;;;;;;;3.17;1.30;;;;;;;;;;5007506;28;20038;-55
2021/12/05 17:50:13;;;;;;;8.68;2.83;;;;;;;;;;5009955;28;20392;-55
2021/12/05 17:52:38;;;;;;;7.90;3.50;;;;;;;;;;5005815;28;20038;-53
2021/12/05 17:55:14;;;;;;;19.42;6.68;;;;;;;;;;5006869;28;20030;-55
2021/12/05 17:57:44;;;;;;;9.48;4.70;;;;;;;;;;5011277;28;20111;-54
2021/12/05 18:00:33;;;;;;;15.95;6.38;;;;;;;;;;5008105;28;20036;-55
2021/12/05 18:03:00;;;;;;;10.07;5.15;;;;;;;;;;5009877;28;20032;-55
2021/12/05 18:05:31;;;;;;;4.15;2.50;;;;;;;;;;5009699;28;20029;-55
2021/12/05 18:08:00;;;;;;;60.45;22.52;;;;;;;;;;5005153;28;20040;-56
2021/12/05 18:10:28;;;;;;;6.80;3.28;;;;;;;;;;5010609;28;20423;-53
2021/12/05 18:12:58;;;;;;;4.10;2.00;;;;;;;;;;5012186;28;20060;-55
2021/12/05 18:15:28;;;;;;;2.65;1.50;;;;;;;;;;5009919;28;20041;-54
2021/12/05 18:17:56;;;;;;;5.55;1.70;;;;;;;;;;5007349;28;20325;-54
2021/12/05 18:20:25;;;;;;;5.18;2.30;;;;;;;;;;5008421;28;20067;-55
2021/12/05 18:23:01;;;;;;;13.05;5.28;;;;;;;;;;4999991;28;20164;-56
2021/12/05 18:25:27;;;;;;;18.02;5.55;;;;;;;;;;4995433;28;20030;-55
2021/12/05 18:27:53;;;;;;;10.10;4.28;;;;;;;;;;4997532;28;20026;-55
2021/12/05 18:30:22;;;;;;;12.02;4.78;;;;;;;;;;5001323;28;20030;-55
2021/12/05 18:32:49;;;;;;;9.57;4.40;;;;;;;;;;4997579;28;20122;-54
2021/12/05 18:35:17;;;;;;;6.20;2.75;;;;;;;;;;5002532;28;20084;-53
2021/12/05 18:37:44;;;;;;;8.55;3.00;;;;;;;;;;4997236;28;20026;-54
2021/12/05 18:40:11;;;;;;;10.00;3.60;;;;;;;;;;5002771;28;20018;-53
2021/12/05 18:42:36;;;;;;;8.10;2.67;;;;;;;;;;5002684;28;20026;-53
2021/12/05 18:45:05;;;;;;;6.07;1.95;;;;;;;;;;4999909;28;20815;-53
2021/12/05 18:47:30;;;;;;;4.63;2.25;;;;;;;;;;5004664;28;20450;-54
2021/12/05 18:49:57;;;;;;;5.93;3.00;;;;;;;;;;5011351;28;20029;-55
2021/12/05 18:52:24;;;;;;;15.98;7.28;;;;;;;;;;4998746;28;20434;-55
2021/12/05 18:54:50;;;;;;;14.88;6.38;;;;;;;;;;4999683;28;20450;-55
2021/12/05 18:57:21;;;;;;;13.25;6.13;;;;;;;;;;5004169;28;20033;-54
2021/12/05 18:59:58;;;;;;;8.82;4.80;;;;;;;;;;5001070;28;20112;-54
2021/12/05 19:05:14;;;;;;;11.25;5.93;;;;;;;;;;5005189;28;20040;-55
2021/12/05 19:07:50;;;;;;;14.88;6.50;;;;;;;;;;4998957;28;20071;-54
2021/12/05 19:13:00;;;;;;;9.07;4.82;;;;;;;;;;5002210;28;20132;-53
2021/12/05 19:15:26;;;;;;;11.50;4.15;;;;;;;;;;4998143;28;20603;-52
2021/12/05 19:17:53;;;;;;;5.20;2.67;;;;;;;;;;5001229;28;20026;-53
2021/12/05 19:20:23;;;;;;;6.13;3.22;;;;;;;;;;5003035;28;20033;-53
2021/12/05 19:22:50;;;;;;;9.57;3.95;;;;;;;;;;4999669;28;20034;-55
2021/12/05 19:25:24;;;;;;;12.73;6.78;;;;;;;;;;5001549;28;20026;-55
2021/12/05 19:27:52;;;;;;;20.25;10.25;;;;;;;;;;4999261;28;20108;-54
2021/12/05 19:30:21;;;;;;;18.98;9.23;;;;;;;;;;5004226;28;20318;-55
2021/12/05 19:32:48;;;;;;;17.83;7.55;;;;;;;;;;5001608;28;20030;-54
2021/12/05 19:35:14;;;;;;;13.13;5.45;;;;;;;;;;5002967;28;20045;-53
2021/12/05 19:37:43;;;;;;;9.48;4.63;;;;;;;;;;5003844;28;20050;-55
2021/12/05 19:40:12;;;;;;;8.98;4.55;;;;;;;;;;5000844;28;20035;-55
2021/12/05 19:42:38;;;;;;;10.30;4.63;;;;;;;;;;4997244;28;20083;-55
2021/12/05 19:45:06;;;;;;;7.60;4.15;;;;;;;;;;5003110;28;20782;-55
2021/12/05 19:47:32;;;;;;;14.88;5.90;;;;;;;;;;5002558;28;24701;-53
2021/12/05 19:49:58;;;;;;;9.80;4.90;;;;;;;;;;5006104;28;20030;-55
2021/12/05 19:52:24;;;;;;;14.88;5.55;;;;;;;;;;4997946;28;20388;-56
2021/12/05 19:54:49;;;;;;;15.68;7.50;;;;;;;;;;4998528;28;20033;-56
2021/12/05 19:57:15;;;;;;;12.43;6.18;;;;;;;;;;5004980;28;20141;-54
2021/12/05 19:59:41;;;;;;;19.88;8.18;;;;;;;;;;5005559;28;20034;-55
2021/12/05 20:02:07;;;;;;;19.98;9.18;;;;;;;;;;5002009;28;20041;-54
2021/12/05 20:04:34;;;;;;;19.60;9.82;;;;;;;;;;5003168;28;20034;-56
2021/12/05 20:06:59;;;;;;;21.20;9.98;;;;;;;;;;5001022;28;20037;-53
2021/12/05 20:09:27;;;;;;;18.88;9.75;;;;;;;;;;5011893;28;20345;-53
2021/12/05 20:11:53;;;;;;;21.00;10.57;;;;;;;;;;5000619;28;20018;-54
2021/12/05 20:14:20;;;;;;;21.55;10.27;;;;;;;;;;5005195;28;20049;-52
2021/12/05 20:16:46;;;;;;;17.30;8.10;;;;;;;;;;5000168;28;20029;-55
2021/12/05 20:19:11;;;;;;;14.68;7.55;;;;;;;;;;5004083;28;20469;-54
2021/12/05 20:21:42;;;;;;;18.48;7.60;;;;;;;;;;5002642;28;20041;-55
2021/12/05 20:24:09;;;;;;;15.90;7.45;;;;;;;;;;5002617;28;20033;-54
2021/12/05 20:26:37;;;;;;;14.25;8.38;;;;;;;;;;5001884;28;20491;-53
2021/12/05 20:29:03;;;;;;;24.23;11.40;;;;;;;;;;5001539;28;20089;-53
2021/12/05 20:31:30;;;;;;;18.20;8.10;;;;;;;;;;4999534;28;20033;-53
2021/12/05 20:33:57;;;;;;;12.30;6.93;;;;;;;;;;5000464;28;20041;-54
2021/12/05 20:36:23;;;;;;;15.20;7.15;;;;;;;;;;4998373;28;20069;-56